Time;durP1;ratioP1;P1;durP2;ratioP2;P2;SDS_P1;SDS_P2;PMS_P1;PMS_P2;Temp;Humidity;BMP_temperature;BMP_pressure;BME280_temperature;BME280_humidity;BME280_pressure;Samples;Min_cycle;Max_cycle;Signal;HPM_P1;HPM_P2
2023/08/05 00:00:42;;;;;;;4.50;4.20;;;;;;;28.26;66.31;101413.11;106994;1259;22532;-51
2023/08/05 00:03:09;;;;;;;4.50;4.10;;;;;;;28.25;66.28;101414.64;106953;1269;24241;-51
2023/08/05 00:05:37;;;;;;;4.20;3.90;;;;;;;28.24;66.38;101411.72;106912;1264;23441;-52
2023/08/05 00:08:05;;;;;;;3.60;3.40;;;;;;;28.23;66.42;101414.97;106866;1253;22569;-51
2023/08/05 00:10:32;;;;;;;4.30;3.90;;;;;;;28.22;66.40;101412.92;107061;1253;25331;-51
2023/08/05 00:12:59;;;;;;;4.30;4.00;;;;;;;28.21;66.47;101411.60;107021;1264;25369;-51
2023/08/05 00:15:26;;;;;;;6.10;4.80;;;;;;;28.20;66.36;101412.38;106911;1269;25490;-51
2023/08/05 00:17:53;;;;;;;5.10;4.70;;;;;;;28.18;66.40;101407.52;106961;1267;25404;-51
2023/08/05 00:20:20;;;;;;;4.70;4.20;;;;;;;28.18;66.46;101408.30;106909;1267;25343;-51
2023/08/05 00:22:47;;;;;;;4.70;4.40;;;;;;;28.16;66.47;101406.30;107056;1266;25344;-51
2023/08/05 00:25:14;;;;;;;5.20;4.70;;;;;;;28.14;66.63;101406.09;106859;1260;25359;-51
2023/08/05 00:27:41;;;;;;;7.30;4.90;;;;;;;28.14;66.67;101408.05;107104;1261;25490;-51
2023/08/05 00:30:09;;;;;;;4.60;4.30;;;;;;;28.13;66.70;101405.14;107154;1267;25328;-51
2023/08/05 00:32:36;;;;;;;4.40;4.00;;;;;;;28.12;66.74;101399.29;107124;1263;22588;-51
2023/08/05 00:35:07;;;;;;;5.00;4.60;;;;;;;28.12;66.71;101395.95;107168;1262;25356;-51
2023/08/05 00:37:34;;;;;;;6.00;4.40;;;;;;;28.10;66.82;101395.90;107192;1254;25290;-51
2023/08/05 00:40:01;;;;;;;4.70;4.30;;;;;;;28.09;66.85;101395.47;107220;1255;25325;-51
2023/08/05 00:42:29;;;;;;;4.60;4.20;;;;;;;28.05;67.04;101387.42;107267;1264;23196;-51
2023/08/05 00:44:56;;;;;;;5.00;4.50;;;;;;;27.95;67.56;101383.65;107040;1263;25360;-51
2023/08/05 00:47:23;;;;;;;4.90;4.40;;;;;;;28.02;67.18;101382.38;107095;1264;25379;-51
2023/08/05 00:49:51;;;;;;;5.20;4.60;;;;;;;28.04;67.22;101379.67;107206;1263;25401;-51
2023/08/05 00:52:19;;;;;;;4.60;4.20;;;;;;;28.04;67.22;101377.92;107204;1264;25161;-51
2023/08/05 00:54:46;;;;;;;5.00;4.60;;;;;;;28.03;67.23;101372.06;107171;1251;25965;-51
2023/08/05 00:57:13;;;;;;;4.80;4.10;;;;;;;28.03;67.12;101371.77;107030;1251;26123;-51
2023/08/05 00:59:40;;;;;;;4.80;4.20;;;;;;;28.02;67.31;101373.41;107146;1257;25321;-51
2023/08/05 01:02:07;;;;;;;4.70;4.30;;;;;;;28.01;67.21;101373.86;107173;1254;25350;-51
2023/08/05 01:04:35;;;;;;;5.20;4.70;;;;;;;28.00;67.36;101378.60;107144;1255;25405;-51
2023/08/05 01:07:03;;;;;;;4.50;4.10;;;;;;;28.00;67.38;101375.39;107012;1263;25331;-51
2023/08/05 01:09:30;;;;;;;4.50;4.00;;;;;;;28.00;67.50;101373.05;107037;1257;25494;-51
2023/08/05 01:11:57;;;;;;;4.90;4.50;;;;;;;27.99;67.58;101368.52;106873;1270;25487;-51
2023/08/05 01:14:24;;;;;;;4.50;4.10;;;;;;;27.98;67.74;101373.06;106851;1258;25382;-52
2023/08/05 01:16:51;;;;;;;6.30;4.00;;;;;;;27.98;67.75;101372.39;106982;1266;25398;-51
2023/08/05 01:19:21;;;;;;;4.70;4.30;;;;;;;27.97;67.67;101373.48;106959;1255;23421;-52
2023/08/05 01:21:49;;;;;;;5.00;4.50;;;;;;;27.99;67.68;101367.27;106749;1274;22535;-51
2023/08/05 01:24:18;;;;;;;6.30;4.60;;;;;;;28.08;67.29;101374.38;106894;1267;25526;-51
2023/08/05 01:26:46;;;;;;;4.60;4.20;;;;;;;28.09;67.32;101371.26;106877;1255;25328;-52
2023/08/05 01:29:13;;;;;;;4.70;4.30;;;;;;;28.07;67.30;101373.30;106886;1260;25319;-51
2023/08/05 01:31:41;;;;;;;5.50;5.10;;;;;;;28.07;67.48;101373.53;106813;1267;25509;-52
2023/08/05 01:34:07;;;;;;;4.70;4.30;;;;;;;28.04;67.48;101376.98;106805;1260;25284;-51
2023/08/05 01:36:34;;;;;;;4.90;4.40;;;;;;;28.04;67.77;101371.87;106592;1261;25325;-51
2023/08/05 01:39:01;;;;;;;5.10;4.50;;;;;;;28.04;68.01;101371.47;106625;1257;22589;-51
2023/08/05 01:41:28;;;;;;;4.70;4.30;;;;;;;28.03;67.97;101368.20;106660;1257;25414;-51
2023/08/05 01:43:56;;;;;;;4.90;4.40;;;;;;;28.01;68.14;101368.49;106636;1266;25328;-51
2023/08/05 01:46:22;;;;;;;5.50;4.60;;;;;;;28.01;68.26;101372.63;106588;1273;25478;-52
2023/08/05 01:48:49;;;;;;;5.10;4.60;;;;;;;28.02;68.49;101370.80;107078;1263;25490;-52
2023/08/05 01:51:16;;;;;;;5.00;4.50;;;;;;;28.02;68.52;101373.13;106952;1255;25346;-52
2023/08/05 01:53:43;;;;;;;4.80;4.40;;;;;;;28.02;68.61;101371.48;106885;1270;25491;-51
2023/08/05 01:56:10;;;;;;;5.00;4.60;;;;;;;28.03;68.56;101373.71;107024;1270;25490;-51
2023/08/05 01:58:37;;;;;;;6.70;4.60;;;;;;;28.03;68.68;101371.20;107108;1260;23896;-52
2023/08/05 02:01:04;;;;;;;4.70;4.30;;;;;;;28.03;68.65;101370.66;107046;1271;24372;-51
2023/08/05 02:03:31;;;;;;;4.60;4.20;;;;;;;28.04;68.63;101371.16;107058;1257;25353;-51
2023/08/05 02:05:58;;;;;;;6.70;4.40;;;;;;;28.05;68.78;101375.86;107086;1263;25420;-52
2023/08/05 02:08:25;;;;;;;5.10;4.70;;;;;;;28.05;68.85;101372.98;107064;1251;25418;-51
2023/08/05 02:10:52;;;;;;;4.90;4.40;;;;;;;28.05;68.86;101373.00;107156;1261;25369;-51
2023/08/05 02:13:19;;;;;;;5.20;4.50;;;;;;;28.06;69.16;101376.30;107223;1254;25350;-51
2023/08/05 02:15:46;;;;;;;4.60;4.20;;;;;;;28.07;69.12;101377.11;107141;1254;25369;-51
2023/08/05 02:18:13;;;;;;;5.40;4.10;;;;;;;28.07;69.24;101382.44;107166;1257;25379;-51
2023/08/05 02:20:40;;;;;;;4.10;3.80;;;;;;;28.07;69.36;101384.23;106903;1258;25359;-52
2023/08/05 02:23:07;;;;;;;4.90;4.50;;;;;;;28.07;69.39;101384.41;107122;1263;25373;-51
2023/08/05 02:25:34;;;;;;;4.90;4.40;;;;;;;28.06;69.62;101384.16;107220;1251;25516;-51
2023/08/05 02:28:01;;;;;;;4.50;4.10;;;;;;;28.05;69.78;101381.00;106916;1273;25481;-51
2023/08/05 02:30:29;;;;;;;4.50;4.10;;;;;;;28.04;70.00;101375.58;107178;1258;25369;-52
2023/08/05 02:32:56;;;;;;;5.10;4.70;;;;;;;28.04;70.32;101371.84;107193;1257;25487;-51
2023/08/05 02:35:23;;;;;;;4.90;4.50;;;;;;;28.04;70.34;101378.29;107177;1254;25347;-52
2023/08/05 02:37:51;;;;;;;5.20;4.70;;;;;;;28.04;70.42;101379.36;106794;1273;25331;-51
2023/08/05 02:40:18;;;;;;;6.10;4.50;;;;;;;28.04;70.41;101381.14;107184;1258;25392;-52
2023/08/05 02:42:45;;;;;;;5.50;5.00;;;;;;;28.03;70.47;101382.64;107148;1263;25340;-51
2023/08/05 02:45:13;;;;;;;6.20;4.50;;;;;;;28.05;70.63;101381.75;107212;1251;25421;-51
2023/08/05 02:47:40;;;;;;;4.40;4.10;;;;;;;28.05;70.63;101382.46;107086;1260;25341;-52
2023/08/05 02:50:09;;;;;;;4.90;4.30;;;;;;;28.05;70.47;101382.66;107192;1254;25341;-51
2023/08/05 02:52:36;;;;;;;5.50;5.00;;;;;;;28.04;70.66;101378.27;106955;1261;22512;-51
2023/08/05 02:55:03;;;;;;;4.70;4.40;;;;;;;28.04;70.83;101381.66;107147;1267;25369;-51
2023/08/05 02:57:30;;;;;;;5.10;4.70;;;;;;;28.04;70.85;101376.31;106838;1260;25334;-51
2023/08/05 02:59:57;;;;;;;5.40;5.00;;;;;;;28.04;70.98;101380.59;107124;1256;25841;-51
2023/08/05 03:02:24;;;;;;;5.10;4.20;;;;;;;28.05;71.17;101383.02;106913;1267;25350;-51
2023/08/05 03:04:52;;;;;;;5.30;4.60;;;;;;;28.06;71.24;101379.01;107196;1258;25418;-51
2023/08/05 03:07:19;;;;;;;5.10;4.70;;;;;;;28.06;71.26;101378.21;107033;1251;25353;-51
2023/08/05 03:09:47;;;;;;;5.50;5.00;;;;;;;28.07;71.32;101379.80;107160;1253;25417;-51
2023/08/05 03:12:14;;;;;;;4.70;4.30;;;;;;;28.08;71.57;101375.80;106997;1260;25417;-52
2023/08/05 03:14:41;;;;;;;4.60;4.20;;;;;;;28.08;71.69;101372.95;106841;1270;25369;-51
2023/08/05 03:17:09;;;;;;;5.70;4.30;;;;;;;28.08;71.86;101366.32;106905;1267;25331;-51
2023/08/05 03:19:36;;;;;;;5.40;4.50;;;;;;;28.08;71.95;101367.25;107104;1264;25356;-51
2023/08/05 03:22:03;;;;;;;4.70;4.20;;;;;;;28.08;71.99;101367.77;107057;1254;25519;-51
2023/08/05 03:24:31;;;;;;;5.10;4.70;;;;;;;28.08;72.07;101368.44;107085;1253;23880;-51
2023/08/05 03:26:58;;;;;;;6.60;4.80;;;;;;;28.09;72.10;101365.36;107136;1260;23469;-51
2023/08/05 03:29:25;;;;;;;4.20;3.90;;;;;;;28.10;72.04;101369.52;107097;1257;25322;-51
2023/08/05 03:31:53;;;;;;;4.70;4.30;;;;;;;28.11;72.35;101371.04;107146;1254;25331;-51
2023/08/05 03:34:23;;;;;;;5.10;4.70;;;;;;;28.12;72.16;101371.35;107093;1256;25356;-52
2023/08/05 03:36:52;;;;;;;5.20;4.60;;;;;;;28.12;72.37;101361.86;106992;1257;25718;-51
2023/08/05 03:39:19;;;;;;;6.40;4.80;;;;;;;28.14;72.33;101360.31;107130;1251;24224;-52
2023/08/05 03:41:46;;;;;;;5.00;4.20;;;;;;;28.15;72.30;101367.36;107093;1269;25353;-51
2023/08/05 03:44:13;;;;;;;5.30;4.80;;;;;;;28.16;72.29;101376.02;107150;1250;22537;-52
2023/08/05 03:46:40;;;;;;;4.80;4.50;;;;;;;28.17;72.45;101370.14;106878;1269;24202;-51
2023/08/05 03:49:08;;;;;;;4.70;4.40;;;;;;;28.21;72.70;101367.70;107078;1263;24241;-51
2023/08/05 03:51:35;;;;;;;4.90;4.50;;;;;;;28.27;73.07;101366.98;107123;1264;25356;-51
2023/08/05 03:54:03;;;;;;;5.20;4.60;;;;;;;28.34;72.90;101368.84;107258;1257;25441;-51
2023/08/05 03:56:31;;;;;;;6.50;4.90;;;;;;;28.43;72.66;101368.98;107187;1263;25360;-52
2023/08/05 03:58:58;;;;;;;5.30;4.80;;;;;;;28.50;72.24;101364.23;107092;1257;25490;-52
2023/08/05 04:01:28;;;;;;;4.80;4.40;;;;;;;28.55;72.15;101361.66;107028;1263;22525;-51
2023/08/05 04:03:55;;;;;;;5.40;4.90;;;;;;;28.58;72.14;101357.48;107108;1253;25369;-51
2023/08/05 04:06:25;;;;;;;5.70;5.20;;;;;;;28.61;72.05;101354.40;107235;1264;25519;-51
2023/08/05 04:08:54;;;;;;;5.50;5.00;;;;;;;28.64;72.11;101353.39;107190;1259;25490;-51
2023/08/05 04:11:21;;;;;;;5.60;4.90;;;;;;;28.66;72.16;101350.16;106842;1267;25362;-52
2023/08/05 04:13:50;;;;;;;6.00;5.50;;;;;;;28.67;72.26;101351.71;106941;1261;25404;-51
2023/08/05 04:16:17;;;;;;;7.00;5.40;;;;;;;28.68;72.18;101353.05;107054;1263;25518;-51
2023/08/05 04:18:46;;;;;;;5.80;5.20;;;;;;;28.69;72.29;101350.29;107189;1266;25376;-51
2023/08/05 04:21:13;;;;;;;6.60;5.60;;;;;;;28.70;72.42;101349.84;107080;1260;22549;-52
2023/08/05 04:23:42;;;;;;;6.10;5.60;;;;;;;28.70;72.72;101349.61;106851;1257;25359;-50
2023/08/05 04:26:09;;;;;;;7.70;5.60;;;;;;;28.71;72.57;101346.67;107118;1264;25390;-51
2023/08/05 04:28:36;;;;;;;5.90;5.30;;;;;;;28.72;72.62;101347.98;107237;1254;25341;-50
2023/08/05 04:31:03;;;;;;;5.80;5.20;;;;;;;28.71;72.75;101345.24;107010;1258;25331;-50
2023/08/05 04:33:32;;;;;;;6.30;5.70;;;;;;;28.71;72.93;101346.88;107029;1257;25344;-51
2023/08/05 04:35:59;;;;;;;6.20;5.60;;;;;;;28.71;72.81;101346.14;107148;1253;25347;-50
2023/08/05 04:38:26;;;;;;;6.20;5.60;;;;;;;28.73;72.90;101352.08;107210;1254;25408;-50
2023/08/05 04:40:53;;;;;;;7.20;6.40;;;;;;;28.72;72.94;101350.86;107011;1266;25350;-50
2023/08/05 04:43:20;;;;;;;6.70;6.10;;;;;;;28.72;72.77;101359.07;106962;1260;25341;-50
2023/08/05 04:45:50;;;;;;;6.50;5.80;;;;;;;28.73;72.83;101359.57;107171;1263;25408;-50
2023/08/05 04:48:18;;;;;;;6.00;5.50;;;;;;;28.72;72.85;101358.59;107060;1256;25378;-51
2023/08/05 04:50:45;;;;;;;6.70;6.00;;;;;;;28.71;72.62;101362.40;107192;1253;25341;-50
2023/08/05 04:53:13;;;;;;;7.00;6.30;;;;;;;28.71;72.75;101362.61;107091;1254;25474;-50
2023/08/05 04:55:40;;;;;;;6.70;6.10;;;;;;;28.71;73.02;101364.39;107152;1254;25369;-50
2023/08/05 04:58:08;;;;;;;6.40;5.80;;;;;;;28.73;72.76;101358.63;107118;1263;25474;-50
2023/08/05 05:00:35;;;;;;;6.70;5.20;;;;;;;28.75;72.53;101356.65;107158;1257;25341;-50
2023/08/05 05:03:02;;;;;;;5.90;5.30;;;;;;;28.77;72.47;101357.08;106849;1264;25351;-50
2023/08/05 05:05:29;;;;;;;6.10;5.60;;;;;;;28.75;72.30;101354.89;107029;1262;25341;-50
2023/08/05 05:07:56;;;;;;;6.10;5.60;;;;;;;28.76;71.94;101354.77;106922;1257;24231;-50
2023/08/05 05:10:23;;;;;;;6.30;5.30;;;;;;;28.73;71.66;101357.19;107110;1254;25335;-50
2023/08/05 05:12:50;;;;;;;6.00;5.50;;;;;;;28.77;71.37;101354.88;107154;1253;25408;-50
2023/08/05 05:15:19;;;;;;;5.70;5.20;;;;;;;28.78;71.14;101356.02;106768;1263;25461;-50
2023/08/05 05:17:46;;;;;;;6.00;5.60;;;;;;;28.80;70.92;101357.47;107133;1264;25368;-50
2023/08/05 05:20:13;;;;;;;5.90;5.30;;;;;;;28.83;70.94;101355.30;107086;1264;25369;-50
2023/08/05 05:22:40;;;;;;;5.50;5.10;;;;;;;28.85;70.92;101350.45;107156;1260;24316;-50
2023/08/05 05:25:08;;;;;;;6.50;5.90;;;;;;;28.89;70.67;101350.42;107137;1253;25529;-50
2023/08/05 05:27:35;;;;;;;6.40;5.80;;;;;;;28.95;70.49;101351.52;106688;1262;25491;-50
2023/08/05 05:30:03;;;;;;;6.60;5.40;;;;;;;29.00;70.26;101350.89;107129;1260;25356;-51
2023/08/05 05:32:31;;;;;;;6.20;5.70;;;;;;;29.05;69.86;101349.98;107140;1253;23906;-51
2023/08/05 05:34:58;;;;;;;6.40;5.80;;;;;;;29.09;69.74;101347.77;107150;1264;25522;-51
2023/08/05 05:37:25;;;;;;;6.70;5.70;;;;;;;29.20;69.68;101338.77;107110;1263;25372;-52
2023/08/05 05:39:52;;;;;;;6.50;5.90;;;;;;;29.37;69.63;101339.71;107225;1263;25472;-52
2023/08/05 05:42:19;;;;;;;6.50;5.50;;;;;;;29.62;69.05;101336.67;107130;1263;25375;-52
2023/08/05 05:44:52;;;;;;;7.90;5.90;;;;;;;29.90;68.16;101333.70;107078;1260;22516;-52
2023/08/05 05:47:20;;;;;;;6.20;5.60;;;;;;;30.25;66.80;101336.90;107205;1254;25344;-52
2023/08/05 05:49:47;;;;;;;5.90;5.40;;;;;;;30.58;65.24;101341.48;107170;1250;22540;-52
2023/08/05 05:52:16;;;;;;;6.20;5.50;;;;;;;30.68;64.50;101339.63;107113;1253;25408;-52
2023/08/05 05:54:43;;;;;;;6.40;5.50;;;;;;;30.96;63.31;101343.34;107196;1262;25353;-53
2023/08/05 05:57:10;;;;;;;5.90;5.30;;;;;;;31.18;62.53;101346.27;106925;1254;25351;-52
2023/08/05 05:59:39;;;;;;;7.10;5.30;;;;;;;31.36;61.64;101346.67;106702;1270;25400;-52
2023/08/05 06:02:07;;;;;;;5.60;5.10;;;;;;;31.53;61.07;101351.00;106957;1254;25379;-52
2023/08/05 06:04:34;;;;;;;6.40;5.30;;;;;;;31.70;60.16;101353.73;107001;1253;22521;-52
2023/08/05 06:07:02;;;;;;;6.20;5.60;;;;;;;31.89;59.71;101358.65;107096;1251;23702;-49
2023/08/05 06:09:31;;;;;;;6.20;5.70;;;;;;;32.07;59.24;101356.95;107118;1253;25334;-52
2023/08/05 06:11:58;;;;;;;6.50;5.90;;;;;;;32.16;58.60;101359.50;106982;1269;25359;-52
2023/08/05 06:14:26;;;;;;;7.30;6.40;;;;;;;32.14;58.43;101360.06;107086;1251;25417;-51
2023/08/05 06:16:53;;;;;;;6.70;6.10;;;;;;;32.12;58.68;101355.13;107148;1250;25369;-52
2023/08/05 06:19:20;;;;;;;6.70;6.10;;;;;;;32.08;58.62;101348.92;107239;1251;25344;-51
2023/08/05 06:21:47;;;;;;;6.60;6.00;;;;;;;32.01;58.60;101338.73;107143;1253;25408;-52
2023/08/05 06:24:15;;;;;;;8.90;6.70;;;;;;;31.96;58.96;101337.81;106981;1263;25334;-51
2023/08/05 06:26:42;;;;;;;7.70;7.00;;;;;;;31.90;59.15;101337.94;107236;1254;25441;-51
2023/08/05 06:29:09;;;;;;;6.90;6.30;;;;;;;31.84;59.13;101337.27;107165;1263;25341;-51
2023/08/05 06:31:36;;;;;;;7.40;6.80;;;;;;;31.79;59.21;101334.39;106903;1269;23950;-52
2023/08/05 06:34:03;;;;;;;8.40;7.20;;;;;;;31.77;59.37;101335.15;106843;1266;25331;-50
2023/08/05 06:36:30;;;;;;;8.70;6.80;;;;;;;31.77;59.58;101334.19;106647;1270;25350;-50
2023/08/05 06:38:58;;;;;;;7.50;6.80;;;;;;;31.76;59.57;101334.86;106652;1266;25417;-52
2023/08/05 06:41:25;;;;;;;7.40;6.70;;;;;;;31.76;59.65;101329.88;107075;1263;25360;-51
2023/08/05 06:43:52;;;;;;;7.30;6.70;;;;;;;31.77;59.56;101331.48;106951;1251;25139;-52
2023/08/05 06:46:19;;;;;;;7.40;6.70;;;;;;;31.76;59.54;101332.02;106907;1261;23300;-52
2023/08/05 06:48:46;;;;;;;7.60;6.90;;;;;;;31.73;59.61;101331.41;106642;1257;22527;-50
2023/08/05 06:51:14;;;;;;;6.90;6.30;;;;;;;31.70;59.71;101331.14;106614;1257;25481;-51
2023/08/05 06:53:44;;;;;;;7.40;6.70;;;;;;;31.66;59.89;101334.65;106721;1257;25465;-51
2023/08/05 06:56:11;;;;;;;7.90;7.10;;;;;;;31.63;60.06;101335.68;106775;1254;25405;-51
2023/08/05 06:58:38;;;;;;;8.00;6.80;;;;;;;31.62;60.23;101333.44;106981;1253;25482;-52
2023/08/05 07:01:05;;;;;;;7.50;6.80;;;;;;;31.65;60.03;101336.94;106688;1258;22653;-51
2023/08/05 07:03:32;;;;;;;7.20;6.60;;;;;;;31.67;60.10;101337.41;107008;1256;25389;-51
2023/08/05 07:05:59;;;;;;;7.60;6.90;;;;;;;31.68;60.00;101339.13;106929;1256;25350;-51
2023/08/05 07:08:27;;;;;;;8.20;7.40;;;;;;;31.71;59.63;101336.25;106845;1266;25366;-51
2023/08/05 07:10:55;;;;;;;7.60;6.90;;;;;;;31.76;59.74;101337.32;106640;1256;24225;-52
2023/08/05 07:13:22;;;;;;;7.30;6.60;;;;;;;31.84;59.54;101336.05;106718;1257;22902;-51
2023/08/05 07:15:50;;;;;;;8.50;7.70;;;;;;;31.96;59.23;101338.40;106363;1276;25366;-51
2023/08/05 07:18:17;;;;;;;7.20;6.50;;;;;;;32.14;58.77;101337.03;106659;1256;25376;-51
2023/08/05 07:20:44;;;;;;;7.80;7.00;;;;;;;32.37;58.16;101342.38;106486;1256;25341;-52
2023/08/05 07:23:11;;;;;;;7.50;6.80;;;;;;;32.62;57.37;101343.48;107204;1250;25341;-52
2023/08/05 07:25:38;;;;;;;7.10;6.40;;;;;;;32.84;56.66;101343.80;107146;1250;25350;-51
2023/08/05 07:28:05;;;;;;;7.40;6.70;;;;;;;33.03;55.82;101340.37;106927;1260;25397;-51
2023/08/05 07:30:32;;;;;;;7.30;6.70;;;;;;;33.19;55.67;101335.42;107046;1269;25418;-52
2023/08/05 07:32:59;;;;;;;7.10;6.40;;;;;;;33.29;55.11;101334.63;107263;1256;25468;-51
2023/08/05 07:35:28;;;;;;;7.80;6.60;;;;;;;33.35;54.58;101335.06;107127;1254;25399;-52
2023/08/05 07:37:55;;;;;;;7.40;6.70;;;;;;;33.40;54.42;101335.19;107241;1251;22547;-52
2023/08/05 07:40:23;;;;;;;7.00;6.40;;;;;;;33.45;54.20;101332.67;107090;1261;25574;-51
2023/08/05 07:42:53;;;;;;;8.10;6.30;;;;;;;33.48;54.15;101330.04;107111;1263;25378;-52
2023/08/05 07:45:21;;;;;;;7.00;6.40;;;;;;;33.49;53.73;101331.75;107110;1250;25372;-52
2023/08/05 07:47:48;;;;;;;7.20;6.50;;;;;;;33.45;53.68;101331.48;107255;1257;25369;-52
2023/08/05 07:50:16;;;;;;;6.70;6.10;;;;;;;33.42;53.53;101331.92;107056;1259;24211;-52
2023/08/05 07:52:44;;;;;;;5.90;5.40;;;;;;;33.42;53.41;101329.96;107585;1251;25490;-52
2023/08/05 07:55:11;;;;;;;6.60;6.00;;;;;;;33.36;53.56;101329.72;107467;1253;25421;-52
2023/08/05 07:57:40;;;;;;;6.40;5.80;;;;;;;33.32;53.89;101334.34;107050;1253;25380;-52
2023/08/05 08:00:12;;;;;;;6.40;5.70;;;;;;;33.29;53.81;101334.37;106971;1266;22530;-51
2023/08/05 08:02:44;;;;;;;7.20;5.70;;;;;;;33.23;54.00;101333.52;106904;1262;23257;-52
2023/08/05 08:05:13;;;;;;;5.80;5.20;;;;;;;33.19;53.83;101332.29;107129;1251;24309;-52
2023/08/05 08:07:46;;;;;;;5.70;5.20;;;;;;;33.19;53.72;101335.77;107250;1254;25331;-51
2023/08/05 08:10:14;;;;;;;6.20;5.00;;;;;;;33.17;53.94;101340.64;107093;1266;25414;-51
2023/08/05 08:12:41;;;;;;;5.80;5.00;;;;;;;33.12;53.95;101341.52;107137;1253;25366;-52
2023/08/05 08:15:09;;;;;;;7.70;5.00;;;;;;;33.11;54.24;101346.89;106661;1253;25810;-52
2023/08/05 08:17:36;;;;;;;5.30;4.80;;;;;;;33.07;54.17;101348.73;107051;1266;25651;-51
2023/08/05 08:20:08;;;;;;;5.70;4.70;;;;;;;33.05;54.35;101353.28;106970;1260;22516;-52
2023/08/05 08:22:35;;;;;;;6.10;4.70;;;;;;;33.04;54.22;101354.80;107048;1260;25379;-52
2023/08/05 08:25:02;;;;;;;4.50;4.10;;;;;;;33.03;54.01;101354.59;106990;1251;22529;-51
2023/08/05 08:27:30;;;;;;;5.50;4.50;;;;;;;33.02;53.91;101350.23;107078;1263;24375;-50
2023/08/05 08:29:57;;;;;;;4.20;3.90;;;;;;;33.04;53.92;101346.27;107234;1257;25417;-50
2023/08/05 08:32:24;;;;;;;7.80;4.00;;;;;;;33.06;53.84;101344.42;107268;1262;25365;-51
2023/08/05 08:34:51;;;;;;;4.00;3.70;;;;;;;33.07;53.79;101341.89;107213;1253;22546;-51
2023/08/05 08:37:18;;;;;;;8.70;4.10;;;;;;;33.09;53.59;101336.91;107337;1257;25490;-51
2023/08/05 08:39:47;;;;;;;4.50;4.00;;;;;;;33.09;53.50;101333.41;107181;1253;22550;-51
2023/08/05 08:42:17;;;;;;;5.80;4.30;;;;;;;33.11;53.70;101333.28;107063;1254;25382;-51
2023/08/05 08:44:44;;;;;;;7.50;4.20;;;;;;;33.15;54.05;101329.58;107112;1254;25281;-52
2023/08/05 08:47:11;;;;;;;4.60;4.10;;;;;;;33.20;53.76;101329.35;107049;1254;25344;-52
2023/08/05 08:49:38;;;;;;;8.70;4.20;;;;;;;33.25;53.73;101331.22;107310;1254;25398;-52
2023/08/05 08:52:06;;;;;;;4.50;4.00;;;;;;;33.29;53.78;101328.60;107216;1255;25341;-52
2023/08/05 08:54:33;;;;;;;6.10;3.80;;;;;;;33.34;53.69;101326.89;107260;1254;22636;-52
2023/08/05 08:57:00;;;;;;;4.20;3.50;;;;;;;33.39;53.59;101326.72;107436;1254;25372;-52
2023/08/05 08:59:28;;;;;;;5.60;3.80;;;;;;;33.43;53.42;101329.36;107088;1259;25387;-51
2023/08/05 09:01:54;;;;;;;7.70;4.60;;;;;;;33.46;53.50;101323.60;107067;1253;25416;-52
2023/08/05 09:04:21;;;;;;;4.60;4.00;;;;;;;33.50;53.58;101330.52;106934;1260;25386;-51
2023/08/05 09:06:48;;;;;;;4.40;3.50;;;;;;;33.54;53.51;101331.23;106714;1257;24185;-51
2023/08/05 09:09:15;;;;;;;4.50;4.00;;;;;;;33.57;53.34;101330.31;106961;1257;25327;-51
2023/08/05 09:11:42;;;;;;;4.10;3.60;;;;;;;33.60;53.50;101329.81;106965;1263;25340;-53
2023/08/05 09:14:11;;;;;;;5.90;3.90;;;;;;;33.63;53.28;101326.09;106876;1266;25331;-51
2023/08/05 09:16:58;;;;;;;4.50;4.10;;;;;;;33.67;53.34;101326.80;107126;1263;23238;-52
2023/08/05 09:19:27;;;;;;;5.10;4.50;;;;;;;33.69;53.18;101330.16;107172;1263;22635;-52
2023/08/05 09:21:54;;;;;;;4.90;4.00;;;;;;;33.71;53.33;101331.36;107082;1260;22570;-51
2023/08/05 09:24:24;;;;;;;5.80;5.20;;;;;;;33.75;53.17;101331.46;107259;1260;22525;-52
2023/08/05 09:26:58;;;;;;;5.80;4.90;;;;;;;33.78;53.16;101327.11;107207;1262;25368;-51
2023/08/05 09:29:27;;;;;;;6.20;5.10;;;;;;;33.82;52.79;101324.37;106905;1256;22545;-51
2023/08/05 09:32:01;;;;;;;5.80;5.00;;;;;;;33.83;52.97;101318.61;107217;1260;24287;-51
2023/08/05 09:34:33;;;;;;;6.00;5.40;;;;;;;33.83;52.78;101312.13;107113;1262;25337;-51
2023/08/05 09:37:01;;;;;;;8.50;5.70;;;;;;;33.80;52.61;101308.31;107259;1263;24005;-51
2023/08/05 09:39:45;;;;;;;7.00;5.30;;;;;;;33.76;52.47;101303.97;107193;1250;22589;-51
2023/08/05 09:42:25;;;;;;;5.30;4.80;;;;;;;33.73;52.09;101303.97;107037;1268;22521;-51
2023/08/05 09:44:54;;;;;;;7.10;5.00;;;;;;;33.70;52.18;101299.95;107175;1254;25376;-52
2023/08/05 09:47:23;;;;;;;5.40;4.90;;;;;;;33.67;52.19;101301.93;107120;1260;22523;-52
2023/08/05 09:49:51;;;;;;;6.00;4.70;;;;;;;33.61;52.46;101299.08;107153;1254;25344;-52
2023/08/05 09:52:23;;;;;;;6.00;5.30;;;;;;;33.58;52.59;101293.91;107126;1257;24655;-52
2023/08/05 09:54:57;;;;;;;6.70;4.60;;;;;;;33.56;52.49;101288.49;106875;1272;25436;-52
2023/08/05 09:57:27;;;;;;;4.80;4.30;;;;;;;33.56;52.44;101290.48;107179;1253;24257;-51
2023/08/05 09:59:58;;;;;;;4.90;4.40;;;;;;;33.55;52.34;101286.70;107069;1253;25411;-52
2023/08/05 10:02:29;;;;;;;8.20;4.50;;;;;;;33.52;52.48;101286.94;107167;1260;22527;-52
2023/08/05 10:04:56;;;;;;;5.10;4.50;;;;;;;33.54;52.74;101287.73;107139;1254;22535;-52
2023/08/05 10:07:24;;;;;;;6.20;4.10;;;;;;;33.56;52.40;101285.33;107166;1254;25421;-52
2023/08/05 10:09:52;;;;;;;5.10;4.60;;;;;;;33.57;52.01;101283.70;107086;1266;25287;-52
2023/08/05 10:12:24;;;;;;;5.20;4.50;;;;;;;33.58;51.96;101284.27;107283;1253;25255;-52
2023/08/05 10:14:54;;;;;;;4.70;4.30;;;;;;;33.60;52.00;101281.77;107163;1253;24255;-52
2023/08/05 10:17:20;;;;;;;4.50;4.10;;;;;;;33.61;52.19;101284.41;107114;1262;22527;-52
2023/08/05 10:19:50;;;;;;;6.90;4.70;;;;;;;33.61;51.72;101282.14;107079;1256;25494;-53
2023/08/05 10:22:24;;;;;;;5.20;4.70;;;;;;;33.62;51.58;101284.77;107119;1251;22539;-52
2023/08/05 10:24:54;;;;;;;5.70;5.20;;;;;;;33.55;51.92;101281.04;107058;1251;26265;-52
2023/08/05 10:27:41;;;;;;;6.70;5.60;;;;;;;33.50;51.86;101279.65;106959;1254;22530;-52
2023/08/05 10:30:12;;;;;;;4.70;4.10;;;;;;;33.51;51.25;101278.50;107259;1256;25341;-51
2023/08/05 10:32:55;;;;;;;4.70;4.30;;;;;;;33.49;51.38;101277.27;107154;1253;22531;-51
2023/08/05 10:35:41;;;;;;;4.30;3.90;;;;;;;33.43;51.54;101275.88;106996;1269;25382;-51
2023/08/05 10:38:09;;;;;;;6.30;4.70;;;;;;;33.36;51.86;101274.36;107118;1256;25369;-51
2023/08/05 10:40:40;;;;;;;5.40;4.40;;;;;;;33.38;51.72;101268.05;107082;1253;23909;-52
2023/08/05 10:43:07;;;;;;;;;;;;;;;33.38;51.33;101263.30;107090;1256;25337;-51
2023/08/05 10:45:35;;;;;;;4.80;4.30;;;;;;;33.39;50.80;101260.35;106865;1273;25369;-51
2023/08/05 10:48:09;;;;;;;4.70;3.90;;;;;;;33.40;50.96;101259.89;107054;1256;22527;-51
2023/08/05 10:50:38;;;;;;;4.20;3.90;;;;;;;33.36;50.58;101264.48;107208;1253;22519;-51
2023/08/05 10:53:12;;;;;;;4.50;4.10;;;;;;;33.35;50.38;101259.85;107101;1254;25321;-52
2023/08/05 10:55:46;;;;;;;4.50;4.10;;;;;;;33.38;50.43;101257.30;107247;1256;25360;-52
2023/08/05 10:58:14;;;;;;;5.90;4.60;;;;;;;33.37;50.25;101252.80;107084;1254;25356;-51
2023/08/05 11:00:42;;;;;;;4.90;4.40;;;;;;;33.35;50.10;101249.16;106924;1262;23251;-52
2023/08/05 11:03:32;;;;;;;4.80;4.40;;;;;;;33.36;50.25;101246.63;107162;1254;25516;-51
2023/08/05 11:06:04;;;;;;;4.30;3.90;;;;;;;33.31;50.14;101242.52;107161;1260;25484;-51
2023/08/05 11:08:32;;;;;;;6.10;4.60;;;;;;;33.28;49.67;101236.89;107102;1263;22655;-51
2023/08/05 11:11:10;;;;;;;5.20;4.70;;;;;;;33.29;49.17;101236.27;107141;1253;22524;-52
2023/08/05 11:13:38;;;;;;;4.50;4.10;;;;;;;33.35;48.87;101232.16;107092;1263;25418;-51
2023/08/05 11:16:15;;;;;;;5.20;4.70;;;;;;;33.33;48.83;101228.24;107047;1253;22523;-51
2023/08/05 11:18:46;;;;;;;4.70;4.20;;;;;;;33.30;48.94;101221.84;106964;1267;24240;-51
2023/08/05 11:21:14;;;;;;;4.70;4.20;;;;;;;33.28;48.80;101215.41;107205;1262;25344;-51